Time;durP1;ratioP1;P1;durP2;ratioP2;P2;SDS_P1;SDS_P2;PMS_P1;PMS_P2;Temp;Humidity;BMP_temperature;BMP_pressure;BME280_temperature;BME280_humidity;BME280_pressure;Samples;Min_cycle;Max_cycle;Signal;HPM_P1;HPM_P2
2023/05/15 00:01:32;;;;;;;14.00;11.50;;;;;;;14.99;100.00;99816.25;186305;1234;43902;-88
2023/05/15 00:05:34;;;;;;;15.00;12.30;;;;;;;15.02;100.00;99805.23;186701;1233;59444;-89
2023/05/15 00:09:36;;;;;;;13.40;11.40;;;;;;;15.02;100.00;99804.23;186432;1233;43660;-88
2023/05/15 00:13:37;;;;;;;17.50;14.40;;;;;;;14.79;100.00;99800.35;186364;1233;43713;-88
2023/05/15 00:17:39;;;;;;;18.50;14.90;;;;;;;14.57;100.00;99791.03;186172;1234;44195;-88
2023/05/15 00:21:41;;;;;;;12.20;10.60;;;;;;;14.47;100.00;99791.25;186255;1234;44130;-89
2023/05/15 00:25:43;;;;;;;19.50;14.80;;;;;;;14.53;100.00;99784.13;186342;1234;57907;-88
2023/05/15 00:29:45;;;;;;;18.50;16.10;;;;;;;14.56;100.00;99782.48;186447;1234;43629;-88
2023/05/15 00:33:47;;;;;;;17.10;13.80;;;;;;;14.47;100.00;99778.73;186322;1234;44033;-89
2023/05/15 00:37:49;;;;;;;16.00;13.90;;;;;;;14.43;100.00;99772.89;186252;1234;44141;-88
2023/05/15 00:41:52;;;;;;;15.60;14.00;;;;;;;14.33;100.00;99767.94;186226;1233;43588;-89
2023/05/15 00:45:54;;;;;;;19.00;12.50;;;;;;;14.18;100.00;99761.13;186307;1233;59887;-88
2023/05/15 00:49:57;;;;;;;14.90;12.70;;;;;;;14.07;100.00;99750.10;186180;1233;43751;-89
2023/05/15 00:53:58;;;;;;;16.40;14.30;;;;;;;14.02;100.00;99744.00;186300;1233;43951;-89
2023/05/15 00:58:02;;;;;;;15.40;12.50;;;;;;;13.98;100.00;99730.76;186271;1233;43932;-89
2023/05/15 01:02:04;;;;;;;18.50;15.40;;;;;;;13.89;100.00;99724.40;186344;1234;43760;-88
2023/05/15 01:06:06;;;;;;;22.20;15.90;;;;;;;13.85;100.00;99714.11;186339;1233;60268;-89
2023/05/15 01:10:09;;;;;;;20.70;15.80;;;;;;;13.78;100.00;99704.23;186316;1233;43809;-89
2023/05/15 01:14:11;;;;;;;20.10;16.20;;;;;;;13.72;100.00;99698.29;186469;1233;43634;-88
2023/05/15 01:18:15;;;;;;;17.10;14.70;;;;;;;13.66;100.00;99689.48;186208;1233;43617;-89
2023/05/15 01:22:32;;;;;;;19.20;14.90;;;;;;;13.71;100.00;99687.20;186519;1234;43744;-91
2023/05/15 01:26:58;;;;;;;20.30;14.60;;;;;;;13.71;100.00;99678.88;186671;1237;59477;-91
2023/05/15 01:31:11;;;;;;;20.40;16.80;;;;;;;13.67;100.00;99670.66;186854;1233;43863;-91
2023/05/15 01:35:17;;;;;;;20.20;17.20;;;;;;;13.68;100.00;99666.28;186449;1234;43649;-91
2023/05/15 01:39:24;;;;;;;14.50;12.90;;;;;;;13.71;100.00;99664.71;186425;1234;43736;-91
2023/05/15 01:43:30;;;;;;;23.00;15.70;;;;;;;13.74;100.00;99668.36;186364;1233;43921;-90
2023/05/15 01:47:45;;;;;;;21.10;15.60;;;;;;;13.74;100.00;99663.26;186380;1234;60235;-90
2023/05/15 01:51:53;;;;;;;16.90;14.20;;;;;;;13.78;100.00;99676.35;186338;1234;43874;-89
2023/05/15 01:55:56;;;;;;;21.60;16.10;;;;;;;13.92;100.00;99687.73;186444;1234;43996;-87
2023/05/15 01:59:58;;;;;;;26.70;13.80;;;;;;;14.06;100.00;99682.88;186336;1234;43670;-87
2023/05/15 02:04:01;;;;;;;16.10;14.40;;;;;;;14.04;100.00;99660.01;186192;1233;44030;-87
2023/05/15 02:08:04;;;;;;;15.20;13.60;;;;;;;13.92;100.00;99636.52;186301;1233;60309;-86
2023/05/15 02:12:07;;;;;;;14.10;12.50;;;;;;;13.86;100.00;99633.09;186391;1234;43686;-87
2023/05/15 02:16:09;;;;;;;14.60;13.00;;;;;;;13.84;100.00;99630.09;186299;1233;43579;-87
2023/05/15 02:20:11;;;;;;;12.90;11.60;;;;;;;13.83;100.00;99625.92;186286;1234;44063;-87
2023/05/15 02:24:13;;;;;;;16.20;13.70;;;;;;;13.82;100.00;99615.27;186287;1233;43723;-87
2023/05/15 02:28:35;;;;;;;18.90;12.40;;;;;;;13.76;100.00;99605.77;186257;1234;60139;-87
2023/05/15 02:32:55;;;;;;;17.50;14.80;;;;;;;13.75;100.00;99595.56;186138;1234;44061;-87
2023/05/15 02:37:00;;;;;;;15.60;14.00;;;;;;;13.69;100.00;99581.09;186316;1233;43648;-86
2023/05/15 02:41:05;;;;;;;19.10;13.00;;;;;;;13.60;100.00;99571.16;186176;1233;44088;-86
2023/05/15 02:45:08;;;;;;;15.10;13.20;;;;;;;13.51;100.00;99567.05;186344;1234;43726;-85
2023/05/15 02:49:11;;;;;;;13.20;11.80;;;;;;;13.46;100.00;99562.85;186549;1233;59320;-86
2023/05/15 02:53:14;;;;;;;15.70;12.40;;;;;;;13.42;100.00;99557.36;186256;1234;43732;-86
2023/05/15 02:57:16;;;;;;;15.90;14.20;;;;;;;13.35;100.00;99550.14;186482;1234;43705;-86
2023/05/15 03:01:18;;;;;;;18.00;12.60;;;;;;;13.32;100.00;99537.71;186158;1233;43875;-85
2023/05/15 03:05:20;;;;;;;14.50;13.00;;;;;;;13.26;100.00;99530.05;186172;1234;44139;-87
2023/05/15 03:09:21;;;;;;;16.50;11.70;;;;;;;13.21;100.00;99523.90;186255;1234;59626;-86
2023/05/15 03:13:23;;;;;;;11.80;10.60;;;;;;;13.22;100.00;99518.02;186257;1234;44010;-86
2023/05/15 03:17:25;;;;;;;16.50;11.70;;;;;;;13.24;100.00;99512.98;186627;1234;43994;-88
2023/05/15 03:21:27;;;;;;;12.00;10.70;;;;;;;13.26;100.00;99510.82;186296;1233;43702;-87
2023/05/15 03:25:29;;;;;;;14.70;13.10;;;;;;;13.26;100.00;99506.81;186354;1234;43982;-88
2023/05/15 03:29:31;;;;;;;12.60;11.00;;;;;;;13.28;100.00;99504.12;186302;1237;59444;-87
2023/05/15 03:33:33;;;;;;;12.30;10.70;;;;;;;13.29;100.00;99502.94;186201;1234;43876;-86
2023/05/15 03:37:35;;;;;;;12.90;10.50;;;;;;;13.34;100.00;99492.96;186634;1234;43893;-89
2023/05/15 03:41:37;;;;;;;12.70;10.40;;;;;;;13.36;100.00;99486.01;186287;1233;44094;-88
2023/05/15 03:45:39;;;;;;;12.20;10.90;;;;;;;13.30;100.00;99481.13;186250;1233;43913;-88
2023/05/15 03:49:41;;;;;;;10.00;8.80;;;;;;;13.23;100.00;99476.26;186075;1234;58892;-87
2023/05/15 03:53:43;;;;;;;10.30;9.30;;;;;;;13.17;100.00;99476.72;186097;1234;43923;-87
2023/05/15 03:57:45;;;;;;;9.90;8.70;;;;;;;13.18;100.00;99475.65;186202;1234;43734;-88
2023/05/15 04:01:47;;;;;;;11.10;9.80;;;;;;;13.18;100.00;99474.31;186293;1237;43814;-88
2023/05/15 04:06:06;;;;;;;8.90;7.80;;;;;;;13.21;100.00;99477.36;186364;1234;43965;-88
2023/05/15 04:10:08;;;;;;;11.40;8.70;;;;;;;13.24;100.00;99473.85;186272;1234;57060;-89
2023/05/15 04:14:10;;;;;;;10.20;8.80;;;;;;;13.28;100.00;99469.02;186286;1234;43949;-88
2023/05/15 04:18:11;;;;;;;10.20;6.90;;;;;;;13.35;100.00;99458.29;186361;1234;43929;-87
2023/05/15 04:22:13;;;;;;;11.00;8.80;;;;;;;13.37;100.00;99460.38;186119;1234;43948;-87
2023/05/15 04:26:15;;;;;;;9.10;8.20;;;;;;;13.30;100.00;99460.27;186351;1233;43666;-86
2023/05/15 04:30:17;;;;;;;8.80;7.90;;;;;;;13.35;100.00;99458.83;186069;1235;59314;-86
2023/05/15 04:34:19;;;;;;;9.70;7.00;;;;;;;13.41;100.00;99456.47;186066;1234;43892;-86
2023/05/15 04:38:21;;;;;;;7.80;7.10;;;;;;;13.42;100.00;99459.55;186172;1233;43991;-87
2023/05/15 04:42:22;;;;;;;9.10;7.90;;;;;;;13.47;100.00;99454.09;186129;1237;43677;-87
2023/05/15 04:46:25;;;;;;;10.00;7.70;;;;;;;13.47;100.00;99444.62;186107;1234;43786;-87
2023/05/15 04:50:27;;;;;;;11.20;9.40;;;;;;;13.48;100.00;99441.61;186237;1234;59324;-88
2023/05/15 04:54:29;;;;;;;9.60;8.20;;;;;;;13.54;100.00;99440.05;186231;1234;43653;-86
2023/05/15 04:58:30;;;;;;;8.90;7.90;;;;;;;13.63;100.00;99435.42;186289;1234;43758;-84
2023/05/15 05:02:32;;;;;;;10.30;8.70;;;;;;;13.69;100.00;99433.70;186187;1233;44164;-83
2023/05/15 05:06:35;;;;;;;9.20;7.50;;;;;;;13.72;100.00;99432.30;186282;1234;43756;-84
2023/05/15 05:10:36;;;;;;;9.20;8.20;;;;;;;13.73;100.00;99425.42;186096;1233;59388;-86
2023/05/15 05:14:40;;;;;;;9.50;8.30;;;;;;;13.76;100.00;99421.33;186324;1234;43924;-86
2023/05/15 05:18:42;;;;;;;11.50;8.20;;;;;;;13.71;100.00;99416.16;186233;1234;43765;-86
2023/05/15 05:22:44;;;;;;;9.60;8.40;;;;;;;13.72;100.00;99418.60;185995;1234;43809;-86
2023/05/15 05:26:47;;;;;;;10.00;7.40;;;;;;;13.68;100.00;99418.77;186062;1234;44219;-85
2023/05/15 05:30:49;;;;;;;9.30;8.10;;;;;;;13.71;100.00;99415.30;186207;1234;57701;-86
2023/05/15 05:34:50;;;;;;;8.40;7.50;;;;;;;13.67;100.00;99410.35;186214;1234;43791;-85
2023/05/15 05:38:52;;;;;;;9.00;7.80;;;;;;;13.70;100.00;99407.89;186212;1234;43749;-85
2023/05/15 05:42:54;;;;;;;9.00;8.20;;;;;;;13.79;100.00;99408.61;186197;1234;43746;-85
2023/05/15 05:46:55;;;;;;;12.00;7.60;;;;;;;13.81;100.00;99406.54;186265;1234;43855;-86
2023/05/15 05:50:57;;;;;;;7.90;7.10;;;;;;;13.84;100.00;99403.17;186198;1234;56939;-86
2023/05/15 05:54:59;;;;;;;11.10;6.80;;;;;;;13.79;100.00;99394.31;186210;1234;43951;-86
2023/05/15 05:59:01;;;;;;;10.80;9.20;;;;;;;13.72;100.00;99390.04;186053;1234;43668;-85
2023/05/15 06:03:02;;;;;;;8.30;7.40;;;;;;;13.63;100.00;99380.48;186053;1237;43645;-86
2023/05/15 06:07:04;;;;;;;10.30;9.30;;;;;;;13.48;100.00;99369.88;186245;1234;43762;-86
2023/05/15 06:11:06;;;;;;;21.30;8.10;;;;;;;13.41;100.00;99360.73;186210;1234;57875;-86
2023/05/15 06:15:07;;;;;;;13.40;9.70;;;;;;;13.44;100.00;99354.58;186330;1233;43606;-85
2023/05/15 06:19:09;;;;;;;11.40;9.80;;;;;;;13.50;100.00;99352.69;186180;1234;43975;-85
2023/05/15 06:23:11;;;;;;;9.90;8.40;;;;;;;13.48;100.00;99351.44;186349;1234;43960;-86
2023/05/15 06:27:13;;;;;;;11.10;9.80;;;;;;;13.37;100.00;99345.19;186298;1234;43946;-85
2023/05/15 06:31:16;;;;;;;12.00;10.10;;;;;;;13.43;100.00;99346.66;186236;1234;58538;-86
2023/05/15 06:35:18;;;;;;;11.60;10.40;;;;;;;13.52;100.00;99341.70;186252;1233;43701;-86
2023/05/15 06:39:20;;;;;;;10.40;9.30;;;;;;;13.42;100.00;99341.05;186043;1234;44048;-86
2023/05/15 06:43:21;;;;;;;12.60;11.20;;;;;;;13.55;100.00;99332.98;186035;1234;43752;-86
2023/05/15 06:47:23;;;;;;;12.40;10.40;;;;;;;13.68;100.00;99335.43;186058;1234;43702;-87
2023/05/15 06:51:25;;;;;;;11.70;10.50;;;;;;;13.72;100.00;99334.52;186060;1233;177906;-86
2023/05/15 06:55:27;;;;;;;9.30;8.00;;;;;;;13.77;100.00;99330.58;186220;1234;43794;-86
2023/05/15 06:59:33;;;;;;;10.10;9.10;;;;;;;13.76;100.00;99329.75;186089;1234;43727;-86
2023/05/15 07:03:34;;;;;;;11.20;8.60;;;;;;;13.76;100.00;99327.60;186091;1233;44093;-87
2023/05/15 07:07:36;;;;;;;10.20;9.30;;;;;;;13.86;100.00;99327.63;186097;1234;43751;-87
2023/05/15 07:11:40;;;;;;;15.40;11.90;;;;;;;13.84;100.00;99324.11;186081;1234;59182;-87
2023/05/15 07:15:42;;;;;;;15.40;9.10;;;;;;;13.95;100.00;99321.14;186106;1234;43697;-87
2023/05/15 07:19:43;;;;;;;13.90;10.70;;;;;;;13.95;100.00;99318.47;186218;1234;43969;-87
2023/05/15 07:23:45;;;;;;;13.90;9.50;;;;;;;13.91;100.00;99315.50;186378;1233;43912;-87
2023/05/15 07:27:47;;;;;;;11.20;9.80;;;;;;;13.93;100.00;99315.29;186207;1234;44003;-86
2023/05/15 07:31:49;;;;;;;11.00;9.50;;;;;;;13.93;100.00;99310.98;186494;1236;58783;-86
2023/05/15 07:35:51;;;;;;;10.00;9.00;;;;;;;13.95;100.00;99307.20;186094;1234;43698;-87
2023/05/15 07:39:54;;;;;;;11.10;8.10;;;;;;;13.94;100.00;99307.81;186247;1235;43659;-87
2023/05/15 07:43:56;;;;;;;10.80;9.80;;;;;;;14.04;100.00;99300.48;186242;1234;43848;-86
2023/05/15 07:47:58;;;;;;;10.60;9.50;;;;;;;14.18;100.00;99300.04;186112;1233;43814;-85
2023/05/15 07:52:01;;;;;;;11.30;10.30;;;;;;;14.16;100.00;99294.29;186254;1234;59429;-87
2023/05/15 07:56:03;;;;;;;10.50;9.50;;;;;;;14.16;100.00;99294.16;186143;1233;43764;-87
2023/05/15 08:00:10;;;;;;;9.50;8.60;;;;;;;14.12;100.00;99293.67;186164;1234;43968;-88
2023/05/15 08:04:12;;;;;;;10.60;8.50;;;;;;;14.16;100.00;99293.63;186229;1237;44121;-88
2023/05/15 08:08:14;;;;;;;11.30;10.10;;;;;;;14.24;100.00;99287.23;186397;1233;43759;-88
2023/05/15 08:12:22;;;;;;;12.50;8.70;;;;;;;14.29;100.00;99284.88;186237;1234;58038;-88
2023/05/15 08:16:25;;;;;;;13.40;10.10;;;;;;;14.24;100.00;99277.16;186182;1235;43985;-88
2023/05/15 08:21:22;;;;;;;14.40;10.90;;;;;;;14.34;100.00;99279.84;186474;1237;83007;-61
2023/05/15 08:36:32;;;;;;;9.90;8.70;;;;;;;14.38;100.00;99262.97;187261;1235;57881;-62
2023/05/15 08:40:35;;;;;;;16.40;11.30;;;;;;;14.44;100.00;99262.45;187029;1234;43710;-62
2023/05/15 08:44:41;;;;;;;12.10;10.00;;;;;;;14.52;100.00;99261.23;186834;1234;43019;-62
2023/05/15 08:48:43;;;;;;;11.70;10.60;;;;;;;14.63;100.00;99260.70;186949;1234;42963;-63
2023/05/15 08:52:48;;;;;;;12.50;11.40;;;;;;;14.70;100.00;99262.90;186936;1233;43099;-63
2023/05/15 08:56:49;;;;;;;13.00;11.70;;;;;;;14.59;100.00;99263.08;186983;1234;58084;-63
2023/05/15 09:01:16;;;;;;;10.90;9.50;;;;;;;14.58;100.00;99259.13;186788;1235;43902;-63
2023/05/15 09:05:18;;;;;;;13.70;10.30;;;;;;;14.72;100.00;99259.08;187263;1234;43828;-63
2023/05/15 09:10:10;;;;;;;9.20;8.30;;;;;;;14.67;100.00;99262.18;186757;1237;43048;-62
2023/05/15 09:14:13;;;;;;;13.40;12.00;;;;;;;14.86;100.00;99266.06;187252;1233;43038;-62
2023/05/15 09:18:15;;;;;;;12.40;9.70;;;;;;;15.05;100.00;99266.77;186960;1233;58091;-62
2023/05/15 09:22:22;;;;;;;11.70;10.50;;;;;;;15.27;100.00;99262.77;187207;1234;43727;-62
2023/05/15 09:26:24;;;;;;;10.70;9.40;;;;;;;15.48;100.00;99260.02;186974;1233;43557;-62
2023/05/15 09:30:26;;;;;;;11.70;9.30;;;;;;;15.48;100.00;99257.36;187238;1234;43328;-61
2023/05/15 09:34:33;;;;;;;10.20;8.10;;;;;;;15.54;100.00;99257.50;186974;1233;43491;-61
2023/05/15 09:38:40;;;;;;;10.00;9.00;;;;;;;15.64;100.00;99261.27;186954;1235;58311;-62
2023/05/15 09:42:50;;;;;;;9.20;8.30;;;;;;;15.69;100.00;99262.79;187216;1233;43124;-62
2023/05/15 09:46:52;;;;;;;9.60;7.20;;;;;;;15.74;100.00;99262.20;186809;1234;43030;-62
2023/05/15 09:50:55;;;;;;;8.90;8.00;;;;;;;15.70;100.00;99260.17;186964;1235;43025;-62
2023/05/15 09:54:56;;;;;;;7.30;6.60;;;;;;;15.66;100.00;99262.98;187237;1234;43006;-62
2023/05/15 09:58:58;;;;;;;8.70;7.90;;;;;;;15.62;100.00;99263.30;186918;1234;59142;-61
2023/05/15 10:03:04;;;;;;;6.80;6.00;;;;;;;15.58;100.00;99263.83;187191;1233;43392;-62
2023/05/15 10:07:08;;;;;;;9.30;8.30;;;;;;;15.59;100.00;99266.27;186839;1234;43917;-63
2023/05/15 10:11:10;;;;;;;7.60;6.90;;;;;;;15.64;100.00;99267.60;186925;1233;43031;-62
2023/05/15 10:15:13;;;;;;;8.80;7.90;;;;;;;15.69;100.00;99261.95;187223;1234;43011;-63
2023/05/15 10:19:14;;;;;;;7.60;6.50;;;;;;;15.69;100.00;99261.02;186905;1234;58471;-62
2023/05/15 10:23:19;;;;;;;9.00;7.20;;;;;;;15.84;100.00;99254.79;187265;1235;43691;-63
2023/05/15 10:27:22;;;;;;;10.50;8.40;;;;;;;16.02;100.00;99247.66;187276;1234;43054;-62
2023/05/15 10:31:24;;;;;;;9.00;7.60;;;;;;;16.05;100.00;99248.92;186954;1233;43601;-63
2023/05/15 10:35:26;;;;;;;9.80;8.50;;;;;;;16.04;100.00;99246.90;187190;1233;43017;-63
2023/05/15 10:39:28;;;;;;;9.80;6.80;;;;;;;15.89;100.00;99244.59;186977;1234;57898;-62
2023/05/15 11:10:43;;;;;;;23.00;9.70;;;;;;;16.81;100.00;99237.29;187246;1234;43111;-63
2023/05/15 11:15:01;;;;;;;10.50;7.60;;;;;;;16.94;100.00;99233.56;187172;1237;43638;-63
2023/05/15 11:19:23;;;;;;;8.40;7.40;;;;;;;17.12;100.00;99231.02;187265;1234;43738;-63
2023/05/15 11:23:25;;;;;;;8.30;6.90;;;;;;;17.15;100.00;99234.05;187028;1234;42999;-63
2023/05/15 11:27:29;;;;;;;6.20;5.60;;;;;;;17.15;100.00;99226.36;187246;1234;58157;-63
2023/05/15 11:31:31;;;;;;;8.20;6.70;;;;;;;17.20;100.00;99220.33;187250;1235;43023;-63
2023/05/15 11:35:41;;;;;;;6.30;5.70;;;;;;;17.34;100.00;99211.48;187322;1234;43077;-63
2023/05/15 11:39:43;;;;;;;9.50;7.30;;;;;;;17.49;100.00;99210.42;186982;1235;43727;-63
2023/05/15 11:43:45;;;;;;;8.50;7.70;;;;;;;17.51;100.00;99206.17;187258;1234;44146;-63
2023/05/15 11:47:47;;;;;;;5.90;5.30;;;;;;;17.45;100.00;99207.96;187290;1234;58351;-64
2023/05/15 11:51:50;;;;;;;10.80;8.00;;;;;;;17.14;100.00;99208.27;187196;1233;43132;-63
2023/05/15 11:55:53;;;;;;;7.60;6.80;;;;;;;16.62;100.00;99214.05;187252;1233;43617;-63
2023/05/15 11:59:54;;;;;;;5.40;4.80;;;;;;;16.28;100.00;99208.05;187255;1234;42971;-63
2023/05/15 12:03:56;;;;;;;5.40;4.50;;;;;;;15.85;100.00;99216.58;187259;1233;42917;-62
2023/05/15 12:07:59;;;;;;;4.10;3.40;;;;;;;15.70;100.00;99218.01;187155;1235;58023;-62
2023/05/15 12:12:12;;;;;;;5.30;4.70;;;;;;;15.59;100.00;99220.83;186829;1234;43773;-63
2023/05/15 12:16:13;;;;;;;4.60;4.00;;;;;;;15.73;100.00;99219.62;186985;1234;42978;-63
2023/05/15 12:20:17;;;;;;;4.80;4.10;;;;;;;15.94;100.00;99212.15;186965;1235;43281;-63
2023/05/15 12:24:20;;;;;;;3.30;3.00;;;;;;;16.09;100.00;99207.84;187189;1233;43087;-63
2023/05/15 12:28:21;;;;;;;3.00;2.70;;;;;;;16.39;100.00;99205.57;187080;1234;57451;-64
2023/05/15 12:32:23;;;;;;;4.50;3.20;;;;;;;16.48;100.00;99210.75;186957;1233;43976;-64
2023/05/15 12:36:28;;;;;;;4.30;3.30;;;;;;;16.52;100.00;99207.61;187299;1234;42943;-64
2023/05/15 12:41:24;;;;;;;5.30;3.40;;;;;;;16.31;100.00;99204.98;187239;1235;43262;-64
2023/05/15 12:45:26;;;;;;;4.90;3.60;;;;;;;16.02;100.00;99210.11;187239;1234;43314;-64
2023/05/15 12:49:27;;;;;;;4.40;3.50;;;;;;;15.73;100.00;99214.60;187192;1235;56956;-62
2023/05/15 12:53:31;;;;;;;4.10;3.70;;;;;;;15.53;100.00;99221.36;187288;1233;43056;-63
2023/05/15 12:57:34;;;;;;;5.20;3.80;;;;;;;15.15;100.00;99226.89;186805;1235;43741;-64
2023/05/15 13:01:36;;;;;;;6.40;4.60;;;;;;;14.93;100.00;99232.52;186728;1234;43411;-62
2023/05/15 13:06:45;;;;;;;5.10;4.70;;;;;;;14.92;100.00;99232.58;187238;1234;42987;-62
2023/05/15 13:10:56;;;;;;;5.10;4.40;;;;;;;14.82;100.00;99228.34;187209;1233;57765;-63
2023/05/15 13:14:57;;;;;;;6.90;5.20;;;;;;;14.64;100.00;99229.02;187023;1234;44084;-62
2023/05/15 13:19:01;;;;;;;7.60;6.90;;;;;;;14.60;100.00;99226.97;187227;1234;42943;-64
2023/05/15 13:23:03;;;;;;;7.70;5.90;;;;;;;14.67;100.00;99227.56;186945;1235;43581;-69
2023/05/15 13:27:05;;;;;;;7.30;6.40;;;;;;;14.51;100.00;99231.95;186947;1234;43452;-63
2023/05/15 13:41:17;;;;;;;9.50;8.10;;;;;;;14.31;100.00;99223.30;186973;1234;42982;-63
2023/05/15 13:45:18;;;;;;;9.70;8.20;;;;;;;14.24;100.00;99229.46;186939;1234;43708;-66
2023/05/15 13:49:20;;;;;;;10.90;7.10;;;;;;;14.14;100.00;99232.83;186638;1238;43004;-61
2023/05/15 13:53:51;;;;;;;8.60;7.90;;;;;;;14.16;100.00;99230.39;186613;1234;58003;-61
2023/05/15 13:57:53;;;;;;;9.50;8.00;;;;;;;14.37;100.00;99228.83;186999;1234;43485;-62
2023/05/15 14:01:55;;;;;;;10.60;8.20;;;;;;;14.61;100.00;99236.14;186651;1239;43704;-61
2023/05/15 14:05:56;;;;;;;9.20;7.00;;;;;;;14.72;100.00;99233.44;187004;1234;43017;-61
2023/05/15 14:09:58;;;;;;;11.20;9.70;;;;;;;14.95;100.00;99239.52;186668;1234;42977;-61
2023/05/15 14:14:00;;;;;;;8.60;7.20;;;;;;;15.03;100.00;99245.91;186800;1234;58092;-61
2023/05/15 14:18:01;;;;;;;6.20;5.60;;;;;;;14.87;100.00;99245.11;186587;1234;43147;-61
2023/05/15 14:22:03;;;;;;;10.10;7.90;;;;;;;14.91;100.00;99244.67;186648;1234;43637;-62
2023/05/15 14:30:46;;;;;;;8.50;7.60;;;;;;;14.97;100.00;99247.55;187119;1233;80882;-61
2023/05/15 14:40:19;;;;;;;9.60;8.60;;;;;;;15.02;100.00;99258.14;186558;1235;43750;-91
2023/05/15 15:02:44;;;;;;;9.10;8.10;;;;;;;15.60;100.00;99266.36;186642;1234;44159;-91
2023/05/15 15:06:51;;;;;;;23.80;10.10;;;;;;;15.77;100.00;99257.58;186448;1235;43898;-90
2023/05/15 15:10:56;;;;;;;10.00;8.40;;;;;;;15.81;100.00;99253.52;186583;1237;84752;-59
2023/05/15 15:23:49;;;;;;;9.90;8.90;;;;;;;15.92;100.00;99256.19;186676;1234;43662;-58
2023/05/15 15:27:51;;;;;;;12.60;11.30;;;;;;;16.10;100.00;99257.26;187061;1234;43036;-58
2023/05/15 15:31:53;;;;;;;11.20;10.00;;;;;;;16.22;100.00;99254.34;187026;1234;43621;-58
2023/05/15 15:35:55;;;;;;;13.10;10.80;;;;;;;16.33;100.00;99247.54;186737;1237;43366;-58
2023/05/15 15:39:57;;;;;;;12.40;10.60;;;;;;;16.42;100.00;99243.20;186733;1234;57522;-58
2023/05/15 15:44:00;;;;;;;11.50;9.90;;;;;;;16.62;100.00;99245.53;187053;1234;43006;-58
2023/05/15 15:48:01;;;;;;;11.10;9.40;;;;;;;16.96;100.00;99241.55;186773;1234;43598;-58
2023/05/15 15:52:09;;;;;;;9.60;8.70;;;;;;;17.33;100.00;99236.45;186717;1234;43200;-58
2023/05/15 15:56:10;;;;;;;13.80;10.40;;;;;;;17.68;100.00;99234.86;186714;1234;43426;-58
2023/05/15 16:00:14;;;;;;;9.50;8.20;;;;;;;17.87;100.00;99228.84;186983;1234;57906;-59
2023/05/15 16:04:16;;;;;;;10.40;9.30;;;;;;;17.99;99.88;99224.39;186998;1234;43280;-59
2023/05/15 16:08:17;;;;;;;10.30;9.30;;;;;;;18.17;100.00;99225.89;186981;1235;43964;-59
2023/05/15 16:12:19;;;;;;;9.80;8.40;;;;;;;18.35;98.96;99221.80;187002;1234;43040;-59
2023/05/15 16:16:21;;;;;;;13.40;8.60;;;;;;;18.33;97.74;99224.29;186938;1234;43371;-59
2023/05/15 16:20:23;;;;;;;9.60;8.60;;;;;;;18.41;97.25;99221.36;186712;1234;57462;-59
2023/05/15 16:24:25;;;;;;;7.40;6.40;;;;;;;18.28;95.09;99224.94;186984;1234;42937;-59
2023/05/15 16:28:26;;;;;;;9.50;7.30;;;;;;;18.11;94.52;99228.92;186983;1234;44060;-59
2023/05/15 16:32:28;;;;;;;9.10;7.40;;;;;;;17.84;95.75;99232.59;187043;1234;43602;-59
2023/05/15 16:36:30;;;;;;;9.60;7.50;;;;;;;17.54;97.40;99233.95;186966;1234;43250;-59
2023/05/15 16:40:31;;;;;;;10.10;7.80;;;;;;;17.28;99.88;99232.54;187030;1234;58043;-59
2023/05/15 16:44:34;;;;;;;7.90;7.10;;;;;;;17.04;100.00;99234.09;186990;1234;43817;-59
2023/05/15 16:48:35;;;;;;;10.80;8.60;;;;;;;16.91;100.00;99242.14;186975;1234;43322;-59
2023/05/15 16:52:38;;;;;;;8.70;7.80;;;;;;;16.80;100.00;99245.29;187015;1234;43654;-59
2023/05/15 16:56:40;;;;;;;7.60;6.90;;;;;;;16.75;100.00;99251.14;186980;1234;43764;-59
2023/05/15 17:00:42;;;;;;;10.20;9.20;;;;;;;16.68;100.00;99250.20;187002;1234;57189;-60
2023/05/15 17:04:44;;;;;;;10.20;6.90;;;;;;;16.66;100.00;99254.54;187084;1234;43012;-59
2023/05/15 17:08:45;;;;;;;11.60;10.40;;;;;;;16.65;100.00;99262.37;186996;1234;43094;-59
2023/05/15 17:12:47;;;;;;;10.50;8.00;;;;;;;16.57;100.00;99266.05;186741;1234;43058;-59
2023/05/15 17:16:48;;;;;;;11.80;9.40;;;;;;;16.47;100.00;99273.53;187030;1234;43042;-59
2023/05/15 17:20:50;;;;;;;9.90;8.60;;;;;;;16.48;100.00;99271.77;186732;1236;57228;-58
2023/05/15 17:24:51;;;;;;;16.80;7.70;;;;;;;16.40;100.00;99275.77;187081;1234;43026;-58
2023/05/15 17:33:21;;;;;;;8.20;7.10;;;;;;;16.24;100.00;99292.56;187170;1232;81403;-59
2023/05/15 17:37:23;;;;;;;7.80;7.00;;;;;;;16.16;100.00;99301.27;187229;1233;43058;-58
2023/05/15 17:41:26;;;;;;;6.30;5.60;;;;;;;16.04;100.00;99303.81;187260;1232;58581;-58
2023/05/15 17:45:38;;;;;;;7.70;6.70;;;;;;;15.80;100.00;99314.14;187175;1232;43405;-58
2023/05/15 17:49:40;;;;;;;9.10;7.80;;;;;;;15.71;100.00;99314.20;187121;1232;43348;-58
2023/05/15 17:53:41;;;;;;;6.90;6.20;;;;;;;15.59;100.00;99315.60;187245;1232;42923;-58
2023/05/15 17:57:42;;;;;;;6.30;5.70;;;;;;;15.48;100.00;99315.33;187313;1232;42988;-58
2023/05/15 18:01:51;;;;;;;10.10;8.90;;;;;;;15.34;100.00;99319.52;187224;1234;57559;-58
2023/05/15 18:05:53;;;;;;;10.40;6.80;;;;;;;15.17;100.00;99321.09;187128;1232;42972;-58
2023/05/15 18:09:55;;;;;;;7.00;6.40;;;;;;;15.02;100.00;99330.34;187206;1232;43588;-58
2023/05/15 18:13:57;;;;;;;10.60;7.00;;;;;;;14.83;100.00;99342.52;187040;1232;43610;-58
2023/05/15 18:17:59;;;;;;;8.00;7.30;;;;;;;14.73;100.00;99352.67;187062;1232;42940;-59
2023/05/15 18:22:02;;;;;;;14.70;8.80;;;;;;;14.68;100.00;99357.12;187085;1232;58624;-59
2023/05/15 18:26:03;;;;;;;8.90;6.00;;;;;;;14.68;100.00;99364.79;187226;1232;43054;-59
2023/05/15 18:30:11;;;;;;;8.30;7.50;;;;;;;14.68;100.00;99370.51;187051;1232;43772;-58
2023/05/15 18:34:12;;;;;;;7.50;6.80;;;;;;;14.56;100.00;99376.75;187136;1232;43064;-58
2023/05/15 18:38:14;;;;;;;9.20;6.30;;;;;;;14.20;100.00;99380.55;187121;1232;43326;-60
2023/05/15 18:42:44;;;;;;;8.20;6.80;;;;;;;14.13;100.00;99383.24;187027;1237;57414;-58
2023/05/15 18:46:46;;;;;;;12.60;5.70;;;;;;;14.16;100.00;99380.36;187170;1232;43377;-57
2023/05/15 18:50:47;;;;;;;10.20;6.40;;;;;;;14.16;100.00;99387.80;187124;1233;150975;-59
2023/05/15 18:54:51;;;;;;;10.20;7.10;;;;;;;14.02;100.00;99387.74;187251;1234;43295;-59
2023/05/15 18:58:53;;;;;;;9.20;5.90;;;;;;;13.91;100.00;99391.98;187162;1232;42967;-59
2023/05/15 19:02:54;;;;;;;8.60;6.40;;;;;;;13.82;100.00;99400.16;187282;1236;58426;-59
2023/05/15 19:06:56;;;;;;;7.70;6.80;;;;;;;13.82;100.00;99406.50;187269;1233;42977;-60
2023/05/15 19:10:58;;;;;;;9.60;4.70;;;;;;;13.79;100.00;99407.15;187274;1233;43666;-60
2023/05/15 19:15:02;;;;;;;7.10;6.20;;;;;;;13.78;100.00;99412.20;187243;1233;42988;-59
2023/05/15 19:19:04;;;;;;;9.80;8.20;;;;;;;13.79;100.00;99415.54;187191;1233;43756;-59
2023/05/15 19:23:08;;;;;;;12.10;8.40;;;;;;;13.73;100.00;99419.14;187216;1233;58623;-59
2023/05/15 19:27:10;;;;;;;14.60;10.80;;;;;;;13.70;100.00;99414.90;187262;1232;43498;-59
2023/05/15 19:31:11;;;;;;;16.00;10.50;;;;;;;13.68;100.00;99411.73;187264;1234;43275;-59
2023/05/15 19:35:28;;;;;;;12.60;9.40;;;;;;;13.68;100.00;99415.07;187278;1234;43746;-59
2023/05/15 19:39:32;;;;;;;14.00;10.30;;;;;;;13.67;100.00;99415.20;187156;1232;43009;-59
2023/05/15 19:43:35;;;;;;;10.90;9.80;;;;;;;13.64;100.00;99419.95;187084;1232;57908;-60
2023/05/15 19:47:56;;;;;;;10.50;8.30;;;;;;;13.66;100.00;99417.31;187221;1233;43561;-59
2023/05/15 19:51:57;;;;;;;14.10;11.70;;;;;;;13.66;100.00;99418.02;187092;1232;42970;-59
2023/05/15 19:55:59;;;;;;;10.30;8.90;;;;;;;13.59;100.00;99416.60;187317;1232;43097;-59
2023/05/15 20:00:00;;;;;;;10.40;9.10;;;;;;;13.49;100.00;99420.47;187273;1232;43351;-60